Piru Past Weather

Last 30 Days

High: 99ºf @1:57 PM    Low: 70ºf @6:57 AM     Approx. Precipitation / Rain Total: in.
Time (PDT)Temp. (ºf)Humidity (%)Dew Point (ºf)Barometer (inHG)Wind Speed (mph)Wind DirectionWind Gust (mph)1hr. Precip / Rain Total (in.)Snow Depth
7:57 PM841429.67-6.08wnw13.9--
6:57 PM901536.11-8.69w16.51--
5:57 PM941233.63-10.43w18.25--
4:57 PM941335.64-12.17w22.59--
3:57 PM981542.43-9.56wsw20.86--
2:57 PM981338.74-12.17s20.86--
1:57 PM99827.4-9.56sse16.51--
12:57 PM96928.05-11.3s18.25--
11:57 AM951336.41-4.34w8.69--
10:57 AM911740.1-4.34wnw7.82--
9:57 AM852444.14-2.61wsw4.34--
8:57 AM802642.01-2.61n4.34--
7:57 AM753243.12-0.87ne5.21--
6:57 AM703541.08-2.61ene6.08--
5:57 AM723542.84-2.61sw5.21--
4:57 AM723038.86-0.87ne5.21--
3:57 AM713340.44-0.87ese5.21--
2:57 AM713541.96-3.48e7.82--
High: 97ºf @4:57 PM    Low: 71ºf @4:57 AM     Approx. Precipitation / Rain Total: in.
Time (PDT)Temp. (ºf)Humidity (%)Dew Point (ºf)Barometer (inHG)Wind Speed (mph)Wind DirectionWind Gust (mph)1hr. Precip / Rain Total (in.)Snow Depth
11:57 PM772639.47-0.87ese3.48--
10:57 PM792236.89-3.48nne7.82--
9:57 PM802541-2.61n5.21--
8:57 PM822340.52-3.48nnw6.95--
7:57 PM842139.84-5.21wsw17.38--
6:57 PM881839.15-12.17w19.99--
5:57 PM911942.98-13.03w22.59--
4:57 PM971846.41-9.56sw20.86--
3:57 PM951844.8-12.17s21.72--
2:57 PM942350.51-13.03sse23.46--
1:57 PM932754.03-14.77sse22.59--
12:57 PM932754.03-13.9s20.86--
11:57 AM912954.28-10.43s16.51--
10:57 AM893255.27-7.82ssw13.9--
9:57 AM852241.87-2.61w6.08--
8:57 AM802843.94-1.74sw4.34--
7:57 AM762941.43-0.87n3.48--
6:57 AM733342.18-1.74e4.34--
5:57 AM723542.84-3.48nne5.21--
4:57 AM713743.4-3.48ese5.21--
3:57 AM733241.39-3.48n6.08--
2:57 AM753343.93-0.87wnw2.61--
1:57 AM753243.12-2.61n4.34--
12:57 AM763445.59-4.34n6.08--
High: 95ºf @2:57 PM    Low: 72ºf @4:57 AM     Approx. Precipitation / Rain Total: in.
Time (PDT)Temp. (ºf)Humidity (%)Dew Point (ºf)Barometer (inHG)Wind Speed (mph)Wind DirectionWind Gust (mph)1hr. Precip / Rain Total (in.)Snow Depth
11:57 PM783245.73-3.48ssw4.34--
10:57 PM793044.9-1.74sw6.95--
9:57 PM793145.76-3.48nw7.82--
8:57 PM812844.8-6.08sw7.82--
7:57 PM842746.39-4.34sw13.03--
6:57 PM912246.83-8.69sw19.12--
5:57 PM931538.48-12.17sse19.99--
4:57 PM951336.41-13.9sse21.72--
3:57 PM95824.47-14.77sse22.59--
2:57 PM951132.23-14.77sse22.59--
1:57 PM941539.27-13.9sse23.46--
12:57 PM941539.27-12.17s20.86--
11:57 AM892447.48-13.03s20.86--
10:57 AM892346.35-13.03ssw16.51--
9:57 AM863050.92-2.61sw6.95--
8:57 AM813852.97-0.87wnw3.48--
7:57 AM794153.26-1.74nnw2.61--
6:57 AM735053.25-3.48nne4.34--
5:57 AM725253.4-2.61e3.48--
4:57 AM725052.33-1.74n4.34--
3:57 AM735153.79-1.74se5.21--
2:57 AM744752.47-3.48sse5.21--
1:57 AM754652.8---3.48--
12:57 AM764351.87-2.61wnw6.08--
High: 97ºf @2:57 PM    Low: 73ºf @6:57 AM     Approx. Precipitation / Rain Total: in.
Time (PDT)Temp. (ºf)Humidity (%)Dew Point (ºf)Barometer (inHG)Wind Speed (mph)Wind DirectionWind Gust (mph)1hr. Precip / Rain Total (in.)Snow Depth
11:57 PM764452.49-3.48ssw6.08--
10:57 PM784554.92-3.48wnw8.69--
9:57 PM794253.92-6.08sw11.3--
8:57 PM823853.86-6.08sw10.43--
7:57 PM853251.8-5.21sw13.03--
6:57 PM892750.64-9.56ssw18.25--
5:57 PM922652.15-12.17sse19.99--
4:57 PM932551.93-13.03sse19.99--
3:57 PM952047.59-13.9sse19.99--
2:57 PM971541.64-13.03sse21.72--
1:57 PM951540.06-16.51sse24.33--
12:57 PM951438.29-13.9sse19.12--
11:57 AM931741.7-12.17sse18.25--
10:57 AM931944.6-3.48wsw8.69--
9:57 AM882345.52-2.61w5.21--
8:57 AM832341.36-1.74sw3.48--
7:57 AM792540.15-0.87nne4.34--
6:57 AM732837.96-3.48e5.21--
5:57 AM732636.08-5.21se7.82--
4:57 AM752637.78-0.87sw3.48--
3:57 AM772437.43-3.48e5.21--
2:57 AM772437.43-1.74se3.48--
1:57 AM792338.02---5.21--
12:57 AM802439.95-1.74ene4.34--
High: 101ºf @3:57 PM    Low: 69ºf @3:57 AM     Approx. Precipitation / Rain Total: in.
Time (PDT)Temp. (ºf)Humidity (%)Dew Point (ºf)Barometer (inHG)Wind Speed (mph)Wind DirectionWind Gust (mph)1hr. Precip / Rain Total (in.)Snow Depth
11:57 PM812541.84-2.61ene5.21--
10:57 PM822340.52-4.34nne6.08--
9:57 PM832139.02-0.87wnw3.48--
8:57 PM852039.41-5.21s9.56--
7:57 PM891636.95-6.08ssw14.77--
6:57 PM951641.73-6.08sw14.77--
5:57 PM981542.43-9.56w18.25--
4:57 PM1001238.23-10.43sse22.59--
3:57 PM1011136.78-11.3sse19.12--
2:57 PM1011239-10.43sse19.12--
1:57 PM991237.47-12.17se19.12--
12:57 PM991032.88-10.43sse17.38--
11:57 AM951336.41-7.82s16.51--
10:57 AM931028.37-9.56ssw16.51--
9:57 AM891229.78-3.48ssw6.95--
8:57 AM831225.15---2.61--
7:57 AM781932.39-0.87se3.48--
6:57 AM722028.73-1.74nne4.34--
5:57 AM691925.03-2.61ne6.08--
4:57 AM703238.78-2.61n4.34--
3:57 AM693338.69-2.61e7.82--
2:57 AM712937.13-3.48ene6.95--
1:57 AM713844.1-0.87n2.61--
12:57 AM724549.48---5.21--
High: 98ºf @2:57 PM    Low: 67ºf @4:57 AM     Approx. Precipitation / Rain Total: in.
Time (PDT)Temp. (ºf)Humidity (%)Dew Point (ºf)Barometer (inHG)Wind Speed (mph)Wind DirectionWind Gust (mph)1hr. Precip / Rain Total (in.)Snow Depth
11:57 PM735153.79-2.61ene6.08--
10:57 PM745054.16-0.87nne3.48--
9:57 PM755055.08-3.48wsw6.08--
8:57 PM774554.01-4.34w11.3--
7:57 PM813349.16-4.34w12.17--
6:57 PM902549.41-8.69nnw16.51--
5:57 PM941539.27-7.82wsw16.51--
4:57 PM951743.3-13.03sw20.86--
3:57 PM982050.03-8.69wsw21.72--
2:57 PM982050.03-12.17wsw23.46--
1:57 PM981948.66-12.17sw20.86--
12:57 PM972150.53-11.3wsw19.99--
11:57 AM952047.59-6.95w13.03--
10:57 AM893356.12-4.34wsw8.69--
9:57 AM833955.46-3.48sw6.08--
8:57 AM804456.1-0.87nnw3.48--
7:57 AM754853.96-0.87ese6.08--
6:57 AM685852.66-2.61ese4.34--
5:57 AM676253.54-1.74nne6.08--
4:57 AM676755.67-5.21e6.95--
3:57 AM696154.98-1.74ne2.61--
2:57 AM686756.62-0.87ene5.21--
1:57 AM696556.73-2.61ene4.34--
12:57 AM696556.73-1.74n5.21--
High: 91ºf @2:57 PM    Low: 69ºf @3:57 AM     Approx. Precipitation / Rain Total: in.
Time (PDT)Temp. (ºf)Humidity (%)Dew Point (ºf)Barometer (inHG)Wind Speed (mph)Wind DirectionWind Gust (mph)1hr. Precip / Rain Total (in.)Snow Depth
11:57 PM706356.81-0.87nnw4.34--
10:57 PM706256.37-2.61nnw6.08--
9:57 PM735957.81-3.48w5.21--
8:57 PM755557.72-2.61wsw12.17--
7:57 PM785057.83-6.95wnw14.77--
6:57 PM814557.63-7.82wnw19.99--
5:57 PM873556-11.3w19.99--
4:57 PM883355.25-11.3w19.99--
3:57 PM893255.27-14.77wnw21.72--
2:57 PM913156.12-9.56wnw16.51--
1:57 PM883758.42-9.56wnw16.51--
12:57 PM883556.88-9.56sse15.64--
11:57 AM873556-9.56s15.64--
10:57 AM844359.07-3.48wnw7.82--
9:57 AM785158.38-3.48ssw6.95--
8:57 AM775660.08-1.74nw3.48--
7:57 AM726459.14-0.87n3.48--
6:57 AM696757.58-1.74n4.34--
5:57 AM696757.58-2.61n5.21--
4:57 AM696757.58-4.34sse6.08--
3:57 AM696657.16---3.48--
2:57 AM706457.25-2.61wsw10.43--
1:57 AM716156.86-6.95ssw9.56--
12:57 AM716458.2-3.48ssw4.34--
High: 88ºf @1:57 PM    Low: 68ºf @6:57 AM     Approx. Precipitation / Rain Total: in.
Time (PDT)Temp. (ºf)Humidity (%)Dew Point (ºf)Barometer (inHG)Wind Speed (mph)Wind DirectionWind Gust (mph)1hr. Precip / Rain Total (in.)Snow Depth
11:57 PM716357.76-2.61wsw4.34--
10:57 PM736158.74---4.34--
9:57 PM736058.28-0.87w6.95--
8:57 PM745657.29-2.61w9.56--
7:57 PM765357.61-7.82wsw13.03--
6:57 PM804858.52-6.95wsw12.17--
5:57 PM834358.17-6.95wsw17.38--
4:57 PM853655.02-10.43sse23.46--
3:57 PM853856.51-13.9s23.46--
2:57 PM883456.07-13.03s21.72--
1:57 PM883355.25-13.9s21.72--
12:57 PM883456.07-8.69ssw17.38--
11:57 AM843754.89-10.43ssw19.99--
10:57 AM833552.49-11.3ssw16.51--
9:57 AM794757.02-3.48w6.95--
8:57 AM765759.65-1.74sw5.21--
7:57 AM707059.75-2.61ssw6.08--
6:57 AM686756.62-0.87sw3.48--
5:57 AM687158.24-0.87s3.48--
4:57 AM686857.03-3.48sw3.48--
3:57 AM706155.92-0.87ssw2.61--
2:57 AM706256.37-0.87n3.48--
1:57 AM696355.87-0.87nnw3.48--
12:57 AM696456.3-2.61sw5.21--
High: 93ºf @3:57 PM    Low: 69ºf @1:57 AM     Approx. Precipitation / Rain Total: in.
Time (PDT)Temp. (ºf)Humidity (%)Dew Point (ºf)Barometer (inHG)Wind Speed (mph)Wind DirectionWind Gust (mph)1hr. Precip / Rain Total (in.)Snow Depth
11:57 PM725655.43-2.61wsw5.21--
10:57 PM735957.81-2.61sw4.34--
9:57 PM755457.21-3.48w10.43--
8:57 PM765659.15-6.95sw9.56--
7:57 PM804959.1-6.95wsw13.03--
6:57 PM873959.01-6.95sw16.51--
5:57 PM893356.12-11.3ssw20.86--
4:57 PM923156.98-12.17s19.12--
3:57 PM933056.93-13.9s19.12--
2:57 PM922955.14-10.43s18.25--
1:57 PM913055.22-10.43s17.38--
12:57 PM893154.4-10.43s17.38--
11:57 AM873051.78-10.43s15.64--
10:57 AM873253.54-2.61sw8.69--
9:57 AM813953.68-6.08ssw13.03--
8:57 AM754954.53-0.87nw2.61--
7:57 AM735254.32---4.34--
6:57 AM696255.43-0.87wnw4.34--
5:57 AM696255.43-2.61e3.48--
4:57 AM696255.43---3.48--
3:57 AM706055.46-0.87wsw2.61--
2:57 AM696154.98-0.87nne2.61--
1:57 AM696355.87---2.61--
12:57 AM696355.87-1.74ese5.21--
High: 94ºf @2:57 PM    Low: 67ºf @5:57 AM     Approx. Precipitation / Rain Total: in.
Time (PDT)Temp. (ºf)Humidity (%)Dew Point (ºf)Barometer (inHG)Wind Speed (mph)Wind DirectionWind Gust (mph)1hr. Precip / Rain Total (in.)Snow Depth
11:57 PM696757.58-1.74wnw6.08--
10:57 PM716156.86-4.34sw5.21--
9:57 PM735153.79-4.34wnw6.95--
8:57 PM774151.48-2.61wsw10.43--
7:57 PM803751.36-6.08wsw11.3--
6:57 PM872849.92-6.08wsw14.77--
5:57 PM902650.47-7.82wsw17.38--
4:57 PM912550.25-10.43w19.99--
3:57 PM932450.82-11.3w22.59--
2:57 PM942451.66-13.03w22.59--
1:57 PM932450.82-12.17wsw20.86--
12:57 PM932855.03-6.08sw14.77--
11:57 AM883355.25-6.08s17.38--
10:57 AM863454.33-3.48w8.69--
9:57 AM823853.86-2.61wnw6.95--
8:57 AM765357.61-2.61sw4.34--
7:57 AM725956.87-0.87nnw1.74--
6:57 AM686354.92---4.34--
5:57 AM676353.98---4.34--
4:57 AM686154.04-1.74n5.21--
3:57 AM696556.73-0.87w3.48--
2:57 AM706155.92-2.61ssw3.48--
1:57 AM715754.99-1.74nnw3.48--
12:57 AM715955.94-2.61wsw4.34--
High: 96ºf @3:57 PM    Low: 70ºf @6:57 AM     Approx. Precipitation / Rain Total: in.
Time (PDT)Temp. (ºf)Humidity (%)Dew Point (ºf)Barometer (inHG)Wind Speed (mph)Wind DirectionWind Gust (mph)1hr. Precip / Rain Total (in.)Snow Depth
11:57 PM725454.43-2.61n4.34--
10:57 PM735354.84-2.61ssw6.08--
9:57 PM754954.53-4.34wsw7.82--
8:57 PM784152.37-6.08wnw7.82--
7:57 PM813651.5-3.48wsw13.03--
6:57 PM853251.8-6.95w14.77--
5:57 PM912853.32-6.95wsw19.12--
4:57 PM923056.07-9.56wsw18.25--
3:57 PM962554.44-12.17s20.86--
2:57 PM933056.93-10.43s20.86--
1:57 PM933056.93-13.03sse20.86--
12:57 PM942956.85-8.69s14.77--
11:57 AM922753.18-7.82ssw14.77--
10:57 AM892851.62-4.34wsw7.82--
9:57 AM862950.01-4.34wsw6.95--
8:57 AM813248.34-1.74sw3.48--
7:57 AM754049.02---1.74--
6:57 AM704547.67-1.74nne2.61--
5:57 AM724247.64-2.61ese4.34--
4:57 AM724147-5.21nne6.08--
3:57 AM724147-1.74nw3.48--
2:57 AM734047.24-3.48se9.56--
1:57 AM743846.77-5.21ssw8.69--
12:57 AM753444.71-2.61w5.21--
High: 94ºf @4:57 PM    Low: 69ºf @5:57 AM     Approx. Precipitation / Rain Total: in.
Time (PDT)Temp. (ºf)Humidity (%)Dew Point (ºf)Barometer (inHG)Wind Speed (mph)Wind DirectionWind Gust (mph)1hr. Precip / Rain Total (in.)Snow Depth
11:57 PM763647.1-5.21ssw6.95--
10:57 PM783245.73-0.87wsw5.21--
9:57 PM793246.6-2.61wsw6.08--
8:57 PM793347.42-3.48wsw9.56--
7:57 PM823551.62-5.21w12.17--
6:57 PM863050.92-6.95s17.38--
5:57 PM902751.49-7.82ssw19.12--
4:57 PM942451.66-7.82s14.77--
3:57 PM932045.95-9.56ssw16.51--
2:57 PM932147.25-7.82s16.51--
1:57 PM892447.48-10.43s17.38--
12:57 PM853251.8-11.3sse19.99--
11:57 AM843553.37-10.43s16.51--
10:57 AM892447.48-4.34sw7.82--
9:57 AM863454.33-3.48nw6.08--
8:57 AM804556.73-1.74w4.34--
7:57 AM745757.78-1.74n4.34--
6:57 AM706658.11-1.74ene6.08--
5:57 AM696757.58-5.21se6.08--
4:57 AM706356.81-1.74nw4.34--
3:57 AM706356.81-0.87wnw5.21--
2:57 AM716458.2-4.34wsw11.3--
1:57 AM716659.06-4.34sse7.82--
12:57 AM726459.14-8.69s13.03--
High: 94ºf @2:57 PM    Low: 67ºf @6:57 AM     Approx. Precipitation / Rain Total: in.
Time (PDT)Temp. (ºf)Humidity (%)Dew Point (ºf)Barometer (inHG)Wind Speed (mph)Wind DirectionWind Gust (mph)1hr. Precip / Rain Total (in.)Snow Depth
11:57 PM745556.79-7.82ssw11.3--
10:57 PM755557.72-4.34ssw7.82--
9:57 PM784152.37-6.08sw8.69--
8:57 PM803952.79-4.34ssw8.69--
7:57 PM833552.49-5.21sw15.64--
6:57 PM883355.25-9.56s19.12--
5:57 PM903256.13-13.9sse19.99--
4:57 PM923257.86-13.9sse26.07--
3:57 PM923257.86-14.77s22.59--
2:57 PM943057.79-12.17s19.12--
1:57 PM923056.07-10.43ssw14.77--
12:57 PM922652.15-4.34wsw10.43--
11:57 AM853755.78-2.61wsw7.82--
10:57 AM804355.47-3.48s6.08--
9:57 AM784756.11---3.48--
8:57 AM715754.99-3.48se5.21--
7:57 AM696255.43-0.87sse3.48--
6:57 AM676454.41-2.61sse5.21--
5:57 AM686154.04-0.87e2.61--
4:57 AM686354.92-0.87wsw6.08--
3:57 AM705955---5.21--
2:57 AM696355.87-4.34e6.08--
1:57 AM696958.4-1.74sw6.08--
12:57 AM696958.4-4.34s7.82--
High: 93ºf @3:57 PM    Low: 67ºf @5:57 AM     Approx. Precipitation / Rain Total: in.
Time (PDT)Temp. (ºf)Humidity (%)Dew Point (ºf)Barometer (inHG)Wind Speed (mph)Wind DirectionWind Gust (mph)1hr. Precip / Rain Total (in.)Snow Depth
11:57 PM706758.53-4.34sw9.56--
10:57 PM725152.87-6.08sw9.56--
9:57 PM744953.61-6.08ssw15.64--
8:57 PM764854.87-6.08sw11.3--
7:57 PM813953.68-6.08ssw12.17--
6:57 PM853453.45-10.43s20.86--
5:57 PM892750.64-15.64sse20.86--
4:57 PM922348.85-13.9sse21.72--
3:57 PM932450.82-13.9sse20.86--
2:57 PM932551.93-14.77sse26.94--
1:57 PM922551.09-14.77s22.59--
12:57 PM892750.64-13.9ssw19.99--
11:57 AM882951.72-8.69s15.64--
10:57 AM823853.86-7.82ssw13.03--
9:57 AM823148.35-4.34s7.82--
8:57 AM773849.43-0.87sw4.34--
7:57 AM724650.07-0.87s6.08--
6:57 AM685249.71-0.87sw4.34--
5:57 AM675550.29---5.21--
4:57 AM675248.79-2.61ene6.08--
3:57 AM684344.66-2.61n6.08--
2:57 AM694244.94-3.48ne6.08--
1:57 AM704949.95-2.61sse6.08--
12:57 AM695954.06-2.61s7.82--
High: 90ºf @4:57 PM    Low: 66ºf @5:57 AM     Approx. Precipitation / Rain Total: in.
Time (PDT)Temp. (ºf)Humidity (%)Dew Point (ºf)Barometer (inHG)Wind Speed (mph)Wind DirectionWind Gust (mph)1hr. Precip / Rain Total (in.)Snow Depth
11:57 PM723844.99-4.34s6.95--
10:57 PM715955.94-0.87w5.21--
9:57 PM726057.34-1.74w9.56--
8:57 PM764653.71-6.95sw16.51--
7:57 PM812844.8-11.3s19.12--
6:57 PM852545.21-11.3s19.99--
5:57 PM872748.94-12.17s19.99--
4:57 PM902549.41-12.17s19.12--
3:57 PM892548.57-13.03ssw19.99--
2:57 PM872748.94-13.03sse20.86--
1:57 PM892649.62-13.9s20.86--
12:57 PM862950.01-13.9ssw21.72--
11:57 AM843250.94-13.03ssw17.38--
10:57 AM843351.77-4.34w12.17--
9:57 AM774453.4-4.34wsw6.95--
8:57 AM725554.94-1.74wsw5.21--
7:57 AM676253.54-2.61sw5.21--
6:57 AM665850.79-2.61wnw5.21--
5:57 AM666453.47-0.87sse6.08--
4:57 AM675751.26---4.34--
3:57 AM685651.71-2.61e6.08--
2:57 AM675952.19-1.74nne4.34--
1:57 AM686254.48-0.87ssw7.82--
12:57 AM686455.36-5.21s6.95--
High: 94ºf @3:57 PM    Low: 64ºf @4:57 AM     Approx. Precipitation / Rain Total: in.
Time (PDT)Temp. (ºf)Humidity (%)Dew Point (ºf)Barometer (inHG)Wind Speed (mph)Wind DirectionWind Gust (mph)1hr. Precip / Rain Total (in.)Snow Depth
11:57 PM695552.15-3.48w6.95--
10:57 PM715352.99-3.48wsw6.08--
9:57 PM744249.44-4.34w8.69--
8:57 PM763546.35-3.48wsw9.56--
7:57 PM793246.6-5.21wsw11.3--
6:57 PM862546.05-6.95wsw13.03--
5:57 PM902144.78-6.95w18.25--
4:57 PM922146.43-7.82wsw17.38--
3:57 PM941945.41-7.82wsw16.51--
2:57 PM932349.68-9.56sw17.38--
1:57 PM902549.41-11.3s18.25--
12:57 PM892851.62-6.08ssw13.9--
11:57 AM853251.8-7.82s13.9--
10:57 AM843754.89-3.48w8.69--
9:57 AM774453.4-2.61w5.21--
8:57 AM734952.7-2.61wsw4.34--
7:57 AM695652.64---2.61--
6:57 AM656854.17-0.87nne1.74--
5:57 AM646752.82-0.87n3.48--
4:57 AM647254.79-2.61nne3.48--
3:57 AM647555.91-0.87nne2.61--
2:57 AM657255.75---2.61--
1:57 AM666855.13-0.87wsw7.82--
12:57 AM686455.36-5.21ssw8.69--
High: 91ºf @4:57 PM    Low: 61ºf @5:57 AM     Approx. Precipitation / Rain Total: in.
Time (PDT)Temp. (ºf)Humidity (%)Dew Point (ºf)Barometer (inHG)Wind Speed (mph)Wind DirectionWind Gust (mph)1hr. Precip / Rain Total (in.)Snow Depth
11:57 PM686857.03-0.87ssw3.48--
10:57 PM696657.16-1.74n3.48--
9:57 PM706457.25-2.61w6.08--
8:57 PM745456.28-4.34w7.82--
7:57 PM794455.2-4.34wsw7.82--
6:57 PM873455.2-6.08wnw14.77--
5:57 PM892952.57-9.56ssw16.51--
4:57 PM912651.31-11.3s19.99--
3:57 PM912348.02-13.03s21.72--
2:57 PM902751.49-13.9s22.59--
1:57 PM902852.47-13.9s20.86--
12:57 PM883153.53-12.17s19.12--
11:57 AM853554.25-13.9ssw17.38--
10:57 AM824155.95-8.69ssw13.9--
9:57 AM785057.83-2.61wsw6.08--
8:57 AM716458.2-2.61ssw4.34--
7:57 AM687057.84-0.87se1.74--
6:57 AM638458.08---1.74--
5:57 AM618656.78---1.74--
4:57 AM628557.43---2.61--
3:57 AM628557.43-0.87wnw3.48--
2:57 AM628256.44-3.48s4.34--
1:57 AM658159.02-0.87s4.34--
12:57 AM657757.61-3.48ssw6.95--
High: 91ºf @4:57 PM    Low: 60ºf @5:57 AM     Approx. Precipitation / Rain Total: in.
Time (PDT)Temp. (ºf)Humidity (%)Dew Point (ºf)Barometer (inHG)Wind Speed (mph)Wind DirectionWind Gust (mph)1hr. Precip / Rain Total (in.)Snow Depth
11:57 PM677257.67-2.61wsw6.08--
10:57 PM686957.44-1.74nnw4.34--
9:57 PM706557.68-2.61sw7.82--
8:57 PM745456.28-4.34wsw17.38--
7:57 PM794757.02-7.82sw16.51--
6:57 PM863958.12-10.43ssw15.64--
5:57 PM893356.12-10.43ssw19.12--
4:57 PM912954.28-13.03ssw19.12--
3:57 PM913156.12-13.03s21.72--
2:57 PM912853.32-13.9sse20.86--
1:57 PM903457.82-13.03s19.99--
12:57 PM864260.2-14.77s23.46--
11:57 AM834358.17-15.64ssw22.59--
10:57 AM824457.91-6.95ssw10.43--
9:57 AM785560.5-1.74sw5.21--
8:57 AM716458.2-2.61sw5.21--
7:57 AM677157.28-0.87wsw2.61--
6:57 AM648158.05-2.61e6.95--
5:57 AM608756.12-1.74nne2.61--
4:57 AM628657.76-0.87wsw2.61--
3:57 AM628356.77-1.74s2.61--
2:57 AM638859.39---2.61--
1:57 AM648258.39-2.61sse5.21--
12:57 AM658058.67-1.74sw2.61--
High: 92ºf @3:57 PM    Low: 63ºf @5:57 AM     Approx. Precipitation / Rain Total: in.
Time (PDT)Temp. (ºf)Humidity (%)Dew Point (ºf)Barometer (inHG)Wind Speed (mph)Wind DirectionWind Gust (mph)1hr. Precip / Rain Total (in.)Snow Depth
11:57 PM678160.97-1.74nnw5.21--
10:57 PM697359.97-4.34s8.69--
9:57 PM716659.06-6.08sw13.03--
8:57 PM736158.74-6.08wsw10.43--
7:57 PM775459.06-6.08wsw15.64--
6:57 PM844761.57-9.56sw15.64--
5:57 PM884060.61-7.82w15.64--
4:57 PM913660.29-8.69wsw17.38--
3:57 PM923056.07-13.03s20.86--
2:57 PM913458.69-13.03s19.99--
1:57 PM893860.05-11.3s17.38--
12:57 PM874160.41-9.56ssw15.64--
11:57 AM874160.41-4.34wsw8.69--
10:57 AM815161.14-3.48w6.95--
9:57 AM756060.16-3.48w6.08--
8:57 AM716960.3-1.74wsw4.34--
7:57 AM677960.26-3.48ssw4.34--
6:57 AM648258.39---2.61--
5:57 AM638458.08-0.87s1.74--
4:57 AM638558.41-1.74nw2.61--
3:57 AM648459.06-2.61ne3.48--
2:57 AM648459.06-1.74ese2.61--
1:57 AM648358.73-0.87ssw3.48--
12:57 AM658159.02-3.48sw12.17--
High: 93ºf @4:57 PM    Low: 61ºf @6:57 AM     Approx. Precipitation / Rain Total: in.
Time (PDT)Temp. (ºf)Humidity (%)Dew Point (ºf)Barometer (inHG)Wind Speed (mph)Wind DirectionWind Gust (mph)1hr. Precip / Rain Total (in.)Snow Depth
11:57 PM677859.91-6.08ssw10.43--
9:57 PM726559.58-5.21sw10.43--
8:57 PM746360.59-3.48wsw11.3--
7:57 PM785459.99-6.95ssw13.9--
6:57 PM854259.3-8.69ssw16.51--
5:57 PM903860.94-9.56sw13.9--
4:57 PM933561.25-7.82wsw21.72--
3:57 PM922854.17-13.9s20.86--
2:57 PM903457.82-14.77s19.99--
1:57 PM893658.54-12.17ssw16.51--
12:57 PM903659.41-6.08sw11.3--
11:57 AM834358.17-7.82ssw14.77--
10:57 AM804657.34-6.95ssw11.3--
9:57 AM765156.55-2.61w6.95--
8:57 AM716056.4-1.74w4.34--
7:57 AM666955.53-3.48ssw6.95--
6:57 AM617954.44-0.87n3.48--
5:57 AM627052.1-2.61n5.21--
4:57 AM638357.75-2.61ssw4.34--
3:57 AM646853.22-1.74nw5.21--
2:57 AM666051.71-1.74n5.21--
1:57 AM675952.19-3.48n5.21--
12:57 AM696355.87-4.34s6.08--
High: 97ºf @3:57 PM    Low: 64ºf @5:57 AM     Approx. Precipitation / Rain Total: in.
Time (PDT)Temp. (ºf)Humidity (%)Dew Point (ºf)Barometer (inHG)Wind Speed (mph)Wind DirectionWind Gust (mph)1hr. Precip / Rain Total (in.)Snow Depth
11:57 PM706256.37-4.34ssw7.82--
10:57 PM715352.99-3.48wsw8.69--
9:57 PM745154.71-2.61nnw10.43--
8:57 PM754954.53-5.21wsw11.3--
7:57 PM814054.38-8.69wsw13.03--
6:57 PM873556-10.43wsw15.64--
5:57 PM932855.03-10.43wsw16.51--
4:57 PM962352.17-10.43wsw17.38--
3:57 PM972251.79-11.3sw18.25--
2:57 PM942350.51-13.03s19.12--
1:57 PM942249.31-10.43s17.38--
12:57 PM922247.66-7.82ssw13.9--
11:57 AM882446.65-6.08ssw11.3--
10:57 AM843150.08-2.61w9.56--
9:57 AM764150.58-3.48w9.56--
8:57 AM725454.43-3.48wsw5.21--
7:57 AM715252.48-0.87ne5.21--
6:57 AM675952.19-2.61ese4.34--
5:57 AM646451.57---3.48--
3:57 AM666051.71-6.08se7.82--
2:57 AM685450.72-2.61ne3.48--
1:57 AM685450.72-1.74nw5.21--
12:57 AM685450.72-3.48n5.21--
High: 98ºf @3:57 PM    Low: 68ºf @4:57 AM     Approx. Precipitation / Rain Total: in.
Time (PDT)Temp. (ºf)Humidity (%)Dew Point (ºf)Barometer (inHG)Wind Speed (mph)Wind DirectionWind Gust (mph)1hr. Precip / Rain Total (in.)Snow Depth
11:57 PM705251.55-1.74wnw4.34--
10:57 PM724951.78-2.61w9.56--
9:57 PM744953.61-4.34sw13.03--
8:57 PM754753.38-8.69ssw19.12--
7:57 PM804355.47-12.17sw17.38--
6:57 PM863555.12-11.3ssw17.38--
5:57 PM913055.22-12.17s19.12--
4:57 PM952553.61-12.17ssw19.99--
3:57 PM982050.03-8.69sw18.25--
2:57 PM961947.04-8.69s17.38--
1:57 PM952047.59-9.56s17.38--
12:57 PM942046.77-6.95s14.77--
10:57 AM852343.02-9.56ssw15.64--
9:57 AM832543.52-4.34ssw10.43--
8:57 AM782943.15-1.74sw6.95--
7:57 AM733442.96-1.74n4.34--
6:57 AM693540.2-3.48nne5.21--
5:57 AM693640.93-0.87wsw5.21--
4:57 AM683841.44-0.87sw7.82--
3:57 AM693943-3.48ne6.08--
2:57 AM693540.2-2.61ssw6.08--
1:57 AM703440.33-4.34nne6.08--
12:57 AM713038-0.87wsw4.34--
High: 96ºf @3:57 PM    Low: 71ºf @5:57 AM     Approx. Precipitation / Rain Total: in.
Time (PDT)Temp. (ºf)Humidity (%)Dew Point (ºf)Barometer (inHG)Wind Speed (mph)Wind DirectionWind Gust (mph)1hr. Precip / Rain Total (in.)Snow Depth
11:57 PM723643.57-2.61n4.34--
10:57 PM723744.29-2.61sw5.21--
9:57 PM763344.8-3.48wsw7.82--
8:57 PM792843.09-5.21wnw12.17--
7:57 PM832240.21-7.82sw11.3--
6:57 PM901739.3-6.95w14.77--
5:57 PM941539.27-8.69w14.77--
4:57 PM941539.27-10.43w16.51--
3:57 PM961744.1-10.43w16.51--
2:57 PM932248.49-7.82s16.51--
12:57 PM902246.01-11.3s19.12--
11:57 AM892042.68-12.17s19.12--
10:57 AM872243.52-12.17ssw18.25--
9:57 AM852545.21-3.48wnw6.95--
8:57 AM803146.62-1.74nw5.21--
7:57 AM763243.99-0.87nnw2.61--
6:57 AM723139.7-1.74se3.48--
5:57 AM713340.44-1.74e6.08--
4:57 AM723542.84-0.87nne6.08--
3:57 AM722937.99-2.61nne4.34--
2:57 AM733140.57-0.87ne6.08--
1:57 AM743040.59-3.48sse4.34--
12:57 AM752940.57-0.87ssw4.34--
High: 97ºf @3:57 PM    Low: 68ºf @5:57 AM     Approx. Precipitation / Rain Total: in.
Time (PDT)Temp. (ºf)Humidity (%)Dew Point (ºf)Barometer (inHG)Wind Speed (mph)Wind DirectionWind Gust (mph)1hr. Precip / Rain Total (in.)Snow Depth
11:57 PM772538.47-0.87nw3.48--
10:57 PM782640.32-0.87nnw2.61--
9:57 PM802439.95-1.74wsw7.82--
8:57 PM812339.69-6.08wsw13.9--
7:57 PM861736.09-6.95w11.3--
6:57 PM921639.34-6.95wsw15.64--
5:57 PM951641.73-8.69w19.99--
4:57 PM961337.19-11.3w19.99--
3:57 PM971337.96-12.17w22.59--
2:57 PM972049.22-10.43sse19.99--
1:57 PM942148.07-13.03s22.59--
12:57 PM941843.99-13.03s19.99--
11:57 AM932147.25-7.82ssw12.17--
10:57 AM902144.78-4.34wsw7.82--
9:57 AM843150.08-3.48wsw6.95--
8:57 AM803449.09-1.74w3.48--
7:57 AM754350.97-1.74-4.34--
6:57 AM715352.99-2.61ese5.21--
5:57 AM686154.04-4.34e4.34--
4:57 AM695250.63-2.61n4.34--
3:57 AM705151.03-0.87wsw2.61--
2:57 AM715554.01-0.87ne3.48--
1:57 AM716357.76-1.74wsw5.21--
12:57 AM735153.79-5.21ssw7.82--
High: 92ºf @6:57 PM    Low: 74ºf @11:57 PM     Approx. Precipitation / Rain Total: in.
Time (PDT)Temp. (ºf)Humidity (%)Dew Point (ºf)Barometer (inHG)Wind Speed (mph)Wind DirectionWind Gust (mph)1hr. Precip / Rain Total (in.)Snow Depth
11:57 PM744249.44-2.61wsw8.69--
10:57 PM764351.87-6.08wsw7.82--
9:57 PM784454.3-4.34ssw8.69--
8:57 PM814155.05-3.48wsw11.3--
7:57 PM863353.51-7.82wsw13.03--
6:57 PM922854.17-6.95wsw16.51--
Past Weather Disclaimer Note regarding "Approx. Precipitation / Rain Total"

Currently

Clear 90°F
29.96in
Barometer
15%
Humidity
East 6.9mph
Wind
Clear

Past Weather Nearby

More Local Information

Bookmark and Share

Go Ad Free - Become a Member